Hillman, Michigan
Current Conditions -  °F | °C
As of 7:20 AM on Friday 24 Oct 2014 (Local Time) from KAPN Reporting Station
Overcast Overcast  
Wind Chill: 38°   Ceiling: 3000
Heat Index: 41°   Visibility: 10mi
Dew Point: 39°   Wind: 5mph
Humidity: 93%   Direction: 210°SSW
Pressure: 30.03"   Gusts: NA
Location:  45.06°N, 83.9°W
Report Text: KAPN 241120Z AUTO 21004KT 10SM BKN030 OVC060 05/04 A3003 RMK AO2 T00500039
Loading
Personal Weather Stations






























Interactive Weather Map
Tropical Storm Tracking
New forecast layout! Learn more

10-Day Weather Forecast

Advertisements
Track Severe Weather on mobile